Etusivu
METAR-TAF:

METAR-TAF

Lentoasemat :

Richland, Washington, Yhdysvallat

Leveyspiiri: 46-18-20N, Pituuspiiri: 119-18-15W, korkeus merenpinnasta: 120 m

Tämänhetkinen sää

Tämä raportti tehtiin 10 minuuttia sitten, kello 16.35 UTC
Tuuli 11 kn luoteesta
Lämpötila 18°C
Kosteus 56%
Ilmanpaine 1006 hPa
Näkyvyys: 16.1 km
selkeää

METAR: KRLD 191635Z AUTO 32011KT 10SM CLR 18/09 A2970 RMK AO2 T01790088

Aika: 09:45 (16:45 UTC)


TAF: puuttuu

Säähavainnot ja -ennusteet yli 4000 lentoasemalta (METAR- ja TAF-raportit).

Käytössä olevat sääasemat on merkitty karttaan keltaisilla ja punaisilla pisteillä.

Aseta hiiri pisteen päälle nähdäksesi sääaseman nimen.

Klikkaa sitten nähdäksesi säähavainnot ja -ennusteet.

Kartan vaihtaminen: klikkaa mustalla rastilla varustettuja vihreitä pisteitä, niin voit zoomata sisään; viivalla varustettua vihreää pistettä, niin voit zoomata ulos tai vihreitä nuolia, niin pääset viereisille kartoille.


METAR-TAF: